createdAt,value
2022-12-25T00:00:40.351Z,12.20
2022-12-25T00:02:12.036Z,10.90
2022-12-25T00:03:44.063Z,10.65
2022-12-25T00:05:15.832Z,10.82
2022-12-25T00:06:47.577Z,10.95
2022-12-25T00:08:19.206Z,10.07
2022-12-25T00:09:50.884Z,7.53
2022-12-25T00:11:22.512Z,9.02
2022-12-25T00:12:54.140Z,11.30
2022-12-25T00:14:25.762Z,9.30
2022-12-25T00:15:57.990Z,10.38
2022-12-25T00:17:29.694Z,7.88
2022-12-25T00:19:01.311Z,7.72
2022-12-25T00:20:32.941Z,6.53
2022-12-25T00:22:04.961Z,7.15
2022-12-25T00:23:36.668Z,7.43
2022-12-25T00:25:08.789Z,7.68
2022-12-25T00:26:40.425Z,8.95
2022-12-25T00:28:12.053Z,6.90
2022-12-25T00:29:43.782Z,5.97
2022-12-25T00:31:17.894Z,8.15
2022-12-25T00:32:49.647Z,7.60
2022-12-25T00:34:21.806Z,8.10
2022-12-25T00:36:00.700Z,6.82
2022-12-25T00:37:32.369Z,7.80
2022-12-25T00:39:04.219Z,8.80
2022-12-25T00:40:43.189Z,6.45
2022-12-25T00:42:20.618Z,6.43
2022-12-25T00:43:52.162Z,6.80
2022-12-25T00:45:23.850Z,6.05
2022-12-25T00:46:55.632Z,7.82
2022-12-25T00:48:29.227Z,5.40
2022-12-25T00:50:00.848Z,7.85
2022-12-25T00:51:33.583Z,5.95
2022-12-25T00:53:05.239Z,6.65
2022-12-25T00:54:37.551Z,6.00
2022-12-25T00:56:10.716Z,7.25
2022-12-25T00:57:42.297Z,6.80
2022-12-25T00:59:14.369Z,6.35
2022-12-25T01:00:47.044Z,7.93
2022-12-25T01:02:25.039Z,8.77
2022-12-25T01:03:57.091Z,8.43
2022-12-25T01:05:28.965Z,6.60
2022-12-25T01:07:00.581Z,6.10
2022-12-25T01:08:35.600Z,5.97
2022-12-25T01:10:23.140Z,7.43
2022-12-25T01:11:54.799Z,4.70
2022-12-25T01:13:27.597Z,7.60
2022-12-25T01:14:59.594Z,6.65
2022-12-25T01:16:31.306Z,7.32
2022-12-25T01:18:07.747Z,7.18
2022-12-25T01:19:40.041Z,6.63
2022-12-25T01:21:16.196Z,6.10
2022-12-25T01:22:47.784Z,6.65
2022-12-25T01:24:19.427Z,8.90
2022-12-25T01:25:50.983Z,5.45
2022-12-25T01:27:22.618Z,8.45
2022-12-25T01:28:54.224Z,6.05
2022-12-25T01:30:25.761Z,5.95
2022-12-25T01:31:57.487Z,5.93
2022-12-25T01:33:29.546Z,4.82
2022-12-25T01:35:01.102Z,5.18
2022-12-25T01:36:32.724Z,6.30
2022-12-25T01:38:04.296Z,8.38
2022-12-25T01:39:35.870Z,6.50
2022-12-25T01:41:07.628Z,5.35
2022-12-25T01:42:39.471Z,7.45
2022-12-25T01:44:13.646Z,5.95
2022-12-25T01:45:46.471Z,5.63
2022-12-25T01:47:18.551Z,8.18
2022-12-25T01:48:51.595Z,6.13
2022-12-25T01:50:23.558Z,6.85
2022-12-25T01:52:04.235Z,6.38
2022-12-25T01:53:35.999Z,5.80
2022-12-25T01:55:10.060Z,7.00
2022-12-25T01:56:43.877Z,6.80
2022-12-25T01:58:17.040Z,8.25
2022-12-25T01:59:49.167Z,6.88
2022-12-25T02:01:21.061Z,7.63
2022-12-25T02:02:52.866Z,8.60
2022-12-25T02:04:39.641Z,9.38
2022-12-25T02:06:11.825Z,9.73
2022-12-25T02:07:44.271Z,9.35
2022-12-25T02:09:16.082Z,10.00
2022-12-25T02:10:47.961Z,9.75
2022-12-25T02:12:29.123Z,10.07
2022-12-25T02:14:01.199Z,12.63
2022-12-25T02:15:40.528Z,11.20
2022-12-25T02:17:21.054Z,11.40
2022-12-25T02:18:59.260Z,10.52
2022-12-25T02:20:36.449Z,14.30
2022-12-25T02:22:13.759Z,11.27
2022-12-25T02:23:54.536Z,13.88
2022-12-25T02:25:59.860Z,11.18
2022-12-25T02:27:37.409Z,13.73
2022-12-25T02:29:11.707Z,12.98
2022-12-25T02:30:49.956Z,9.52
2022-12-25T02:32:49.320Z,12.82
2022-12-25T02:34:42.752Z,14.95
2022-12-25T02:36:26.401Z,14.82
2022-12-25T02:38:16.644Z,14.05
2022-12-25T02:40:11.671Z,13.38
2022-12-25T02:43:43.824Z,11.95
2022-12-25T02:45:40.268Z,13.27
2022-12-25T02:47:30.570Z,13.73
2022-12-25T02:49:28.919Z,12.23
2022-12-25T02:51:23.126Z,14.00
2022-12-25T02:53:15.747Z,10.45
2022-12-25T02:55:11.522Z,13.38
2022-12-25T02:57:04.645Z,15.15
2022-12-25T02:58:57.963Z,11.85
2022-12-25T03:00:51.030Z,11.30
2022-12-25T03:02:42.776Z,11.52
2022-12-25T03:04:36.912Z,12.00
2022-12-25T03:06:29.087Z,11.93
2022-12-25T03:08:07.519Z,9.68
2022-12-25T03:10:01.928Z,10.35
2022-12-25T03:11:33.821Z,11.98
2022-12-25T03:13:28.831Z,14.30
2022-12-25T03:15:18.933Z,12.05
2022-12-25T03:16:54.014Z,14.20
2022-12-25T03:18:28.093Z,10.93
2022-12-25T03:20:18.805Z,12.20
2022-12-25T03:22:09.123Z,11.73
2022-12-25T03:24:02.657Z,9.35
2022-12-25T03:25:53.183Z,9.90
2022-12-25T03:27:29.684Z,10.40
2022-12-25T03:29:01.425Z,10.98
2022-12-25T03:31:00.433Z,8.32
2022-12-25T03:32:44.402Z,10.85
2022-12-25T03:35:04.068Z,8.63
2022-12-25T03:37:22.378Z,8.98
2022-12-25T03:39:25.456Z,11.98
2022-12-25T03:41:18.728Z,11.98
2022-12-25T03:43:15.745Z,10.75
2022-12-25T03:45:32.305Z,11.05
2022-12-25T03:47:39.289Z,9.20
2022-12-25T03:49:45.858Z,7.93
2022-12-25T03:51:40.319Z,7.93
2022-12-25T03:53:48.513Z,7.97
2022-12-25T03:55:40.456Z,9.70
2022-12-25T03:57:32.653Z,11.20
2022-12-25T03:59:24.046Z,13.95
2022-12-25T04:01:14.872Z,10.00
2022-12-25T04:03:05.114Z,9.68
2022-12-25T04:04:55.814Z,8.45
2022-12-25T04:06:46.135Z,10.00
2022-12-25T04:08:36.331Z,11.20
2022-12-25T04:10:26.922Z,10.90
2022-12-25T04:12:16.983Z,8.50
2022-12-25T04:14:11.622Z,10.05
2022-12-25T04:16:01.548Z,10.88
2022-12-25T04:17:51.842Z,8.20
2022-12-25T04:19:42.095Z,7.95
2022-12-25T04:21:32.641Z,8.48
2022-12-25T04:23:22.606Z,8.02
2022-12-25T04:25:12.983Z,8.77
2022-12-25T04:27:03.292Z,8.95
2022-12-25T04:28:53.497Z,6.43
2022-12-25T04:30:44.415Z,8.23
2022-12-25T04:32:34.858Z,7.70
2022-12-25T04:34:25.004Z,7.93
2022-12-25T04:36:14.549Z,7.82
2022-12-25T04:37:46.196Z,8.93
2022-12-25T04:39:17.925Z,8.55
2022-12-25T04:40:49.586Z,6.45
2022-12-25T04:42:21.318Z,9.38
2022-12-25T04:43:52.881Z,7.10
2022-12-25T04:45:24.431Z,9.43
2022-12-25T04:46:56.083Z,11.48
2022-12-25T04:48:29.832Z,10.48
2022-12-25T04:50:01.491Z,8.43
2022-12-25T04:51:33.060Z,7.22
2022-12-25T04:53:04.632Z,8.07
2022-12-25T04:54:37.792Z,8.85
2022-12-25T04:56:09.571Z,8.63
2022-12-25T04:57:41.234Z,8.32
2022-12-25T04:59:13.007Z,9.57
2022-12-25T05:00:44.650Z,8.52
2022-12-25T05:02:16.500Z,10.40
2022-12-25T05:03:48.288Z,6.63
2022-12-25T05:05:19.962Z,9.68
2022-12-25T05:06:51.631Z,7.05
2022-12-25T05:08:23.601Z,9.00
2022-12-25T05:09:55.198Z,11.63
2022-12-25T05:11:27.532Z,9.80
2022-12-25T05:12:59.142Z,9.80
2022-12-25T05:14:30.971Z,13.45
2022-12-25T05:16:05.795Z,9.55
2022-12-25T05:17:37.622Z,11.25
2022-12-25T05:19:09.452Z,10.02
2022-12-25T05:20:41.107Z,8.82
2022-12-25T05:22:12.693Z,9.88
2022-12-25T05:23:50.589Z,6.97
2022-12-25T05:25:22.225Z,7.95
2022-12-25T05:26:54.764Z,7.93
2022-12-25T05:28:26.333Z,8.98
2022-12-25T05:29:58.010Z,8.20
2022-12-25T05:31:29.736Z,7.40
2022-12-25T05:33:02.087Z,8.52
2022-12-25T05:34:33.709Z,10.27
2022-12-25T05:36:07.522Z,8.77
2022-12-25T05:37:39.296Z,9.50
2022-12-25T05:39:10.884Z,10.27
2022-12-25T05:40:42.672Z,10.25
2022-12-25T05:42:14.324Z,7.28
2022-12-25T05:43:45.967Z,7.88
2022-12-25T05:45:17.581Z,6.43
2022-12-25T05:46:49.229Z,8.85
2022-12-25T05:48:20.947Z,7.10
2022-12-25T05:49:52.595Z,8.30
2022-12-25T05:51:25.148Z,8.07
2022-12-25T05:52:57.706Z,8.70
2022-12-25T05:54:31.790Z,8.60
2022-12-25T05:56:05.409Z,5.97
2022-12-25T05:57:37.713Z,7.63
2022-12-25T05:59:09.313Z,6.40
2022-12-25T06:00:41.054Z,7.00
2022-12-25T06:02:12.882Z,6.95
2022-12-25T06:03:45.113Z,8.50
2022-12-25T06:05:16.841Z,6.00
2022-12-25T06:06:48.629Z,6.03
2022-12-25T06:08:20.805Z,5.40
2022-12-25T06:09:52.408Z,6.10
2022-12-25T06:11:24.175Z,7.88
2022-12-25T06:12:55.844Z,8.13
2022-12-25T06:14:27.543Z,6.93
2022-12-25T06:15:59.498Z,6.00
2022-12-25T06:17:31.143Z,7.95
2022-12-25T06:19:02.839Z,8.90
2022-12-25T06:20:34.568Z,8.20
2022-12-25T06:22:06.212Z,6.20
2022-12-25T06:23:39.491Z,7.07
2022-12-25T06:25:11.177Z,6.50
2022-12-25T06:26:42.733Z,7.65
2022-12-25T06:28:14.368Z,8.88
2022-12-25T06:29:45.979Z,9.70
2022-12-25T06:31:20.309Z,6.72
2022-12-25T06:32:51.971Z,6.03
2022-12-25T06:34:23.753Z,7.03
2022-12-25T06:35:55.457Z,6.85
2022-12-25T06:37:27.085Z,7.95
2022-12-25T06:39:01.823Z,8.88
2022-12-25T06:40:34.663Z,8.32
2022-12-25T06:42:06.270Z,7.50
2022-12-25T06:43:38.530Z,9.85
2022-12-25T06:45:10.561Z,10.25
2022-12-25T06:46:42.317Z,10.68
2022-12-25T06:48:13.923Z,12.00
2022-12-25T06:49:45.604Z,8.85
2022-12-25T06:51:24.363Z,11.07
2022-12-25T06:52:56.930Z,9.27
2022-12-25T06:54:28.647Z,11.55
2022-12-25T06:56:08.793Z,12.18
2022-12-25T06:57:40.480Z,10.23
2022-12-25T06:59:12.475Z,10.18
2022-12-25T07:00:44.071Z,9.30
2022-12-25T07:02:23.228Z,10.57
2022-12-25T07:03:57.659Z,9.65
2022-12-25T07:05:29.215Z,12.15
2022-12-25T07:07:07.959Z,10.60
2022-12-25T07:08:40.724Z,10.57
2022-12-25T07:10:12.333Z,9.45
2022-12-25T07:11:44.033Z,10.23
2022-12-25T07:13:15.575Z,10.45
2022-12-25T07:14:49.826Z,9.18
2022-12-25T07:16:21.593Z,10.27
2022-12-25T07:17:53.213Z,12.32
2022-12-25T07:19:24.975Z,10.45
2022-12-25T07:20:59.334Z,13.95
2022-12-25T07:22:31.154Z,10.52
2022-12-25T07:24:02.877Z,12.75
2022-12-25T07:25:37.442Z,13.98
2022-12-25T07:27:09.709Z,11.05
2022-12-25T07:28:41.340Z,14.65
2022-12-25T07:30:13.402Z,13.15
2022-12-25T07:31:45.222Z,12.13
2022-12-25T07:33:17.536Z,12.18
2022-12-25T07:34:49.148Z,13.27
2022-12-25T07:36:21.183Z,22.45
2022-12-25T07:37:53.348Z,16.42
2022-12-25T07:39:24.954Z,27.70
2022-12-25T07:40:56.624Z,37.80
2022-12-25T07:42:28.247Z,25.30
2022-12-25T07:43:59.921Z,29.10
2022-12-25T07:45:31.570Z,22.65
2022-12-25T07:47:03.370Z,30.70
2022-12-25T07:48:36.234Z,19.30
2022-12-25T07:50:08.219Z,27.15
2022-12-25T07:51:40.053Z,15.13
2022-12-25T07:53:11.688Z,40.28
2022-12-25T07:54:43.300Z,16.88
2022-12-25T07:56:18.838Z,11.52
2022-12-25T07:57:50.477Z,17.40
2022-12-25T07:59:22.108Z,13.10
2022-12-25T08:00:53.883Z,18.73
2022-12-25T08:02:28.915Z,16.48
2022-12-25T08:04:02.736Z,18.52
2022-12-25T08:05:34.356Z,10.90
2022-12-25T08:07:05.929Z,15.65
2022-12-25T08:08:40.108Z,17.02
2022-12-25T08:10:11.808Z,13.25
2022-12-25T08:11:47.114Z,11.40
2022-12-25T08:13:18.632Z,14.75
2022-12-25T08:14:50.274Z,17.88
2022-12-25T08:16:22.758Z,13.43
2022-12-25T08:17:54.446Z,14.45
2022-12-25T08:19:26.099Z,14.93
2022-12-25T08:21:06.018Z,14.63
2022-12-25T08:22:37.643Z,15.52
2022-12-25T08:24:09.329Z,15.15
2022-12-25T08:25:40.904Z,10.35
2022-12-25T08:27:12.521Z,16.77
2022-12-25T08:28:44.418Z,17.63
2022-12-25T08:30:16.092Z,29.30
2022-12-25T08:31:47.778Z,13.48
2022-12-25T08:33:19.393Z,15.70
2022-12-25T08:34:51.000Z,19.52
2022-12-25T08:36:23.611Z,17.98
2022-12-25T08:37:55.164Z,20.08
2022-12-25T08:39:26.822Z,15.18
2022-12-25T08:40:58.482Z,12.57
2022-12-25T08:42:30.104Z,18.05
2022-12-25T08:44:02.458Z,16.67
2022-12-25T08:45:35.435Z,12.90
2022-12-25T08:47:07.072Z,14.65
2022-12-25T08:48:42.396Z,16.67
2022-12-25T08:50:14.203Z,13.60
2022-12-25T08:51:46.024Z,13.45
2022-12-25T08:53:17.948Z,10.95
2022-12-25T08:54:49.530Z,18.75
2022-12-25T08:56:21.188Z,15.82
2022-12-25T08:57:54.247Z,12.35
2022-12-25T08:59:25.970Z,11.95
2022-12-25T09:00:57.704Z,9.60
2022-12-25T09:02:29.568Z,12.50
2022-12-25T09:04:01.329Z,12.02
2022-12-25T09:05:36.596Z,10.70
2022-12-25T09:07:08.169Z,15.00
2022-12-25T09:08:46.236Z,12.32
2022-12-25T09:10:19.632Z,13.90
2022-12-25T09:11:51.224Z,14.30
2022-12-25T09:13:22.832Z,19.90
2022-12-25T09:14:54.554Z,19.38
2022-12-25T09:16:26.565Z,18.48
2022-12-25T09:17:58.286Z,19.10
2022-12-25T09:19:30.749Z,15.75
2022-12-25T09:21:05.378Z,15.90
2022-12-25T09:22:37.027Z,16.13
2022-12-25T09:24:08.700Z,16.63
2022-12-25T09:25:40.339Z,18.50
2022-12-25T09:27:11.938Z,13.85
2022-12-25T09:28:50.651Z,16.27
2022-12-25T09:30:23.879Z,15.05
2022-12-25T09:31:55.455Z,10.77
2022-12-25T09:33:27.924Z,7.00
2022-12-25T09:34:59.488Z,16.45
2022-12-25T09:36:31.176Z,8.57
2022-12-25T09:38:02.825Z,9.57
2022-12-25T09:39:34.493Z,8.98
2022-12-25T09:41:16.097Z,7.78
2022-12-25T09:42:49.454Z,8.32
2022-12-25T09:44:44.915Z,9.05
2022-12-25T09:46:21.912Z,9.82
2022-12-25T09:47:57.024Z,10.40
2022-12-25T09:49:58.066Z,12.77
2022-12-25T09:51:33.951Z,12.00
2022-12-25T09:53:19.316Z,12.18
2022-12-25T09:55:06.711Z,15.25
2022-12-25T09:56:38.698Z,13.60
2022-12-25T09:58:15.471Z,11.90
2022-12-25T09:59:47.572Z,14.38
2022-12-25T10:01:37.790Z,11.38
2022-12-25T10:03:45.787Z,10.50
2022-12-25T10:05:21.948Z,13.65
2022-12-25T10:07:02.465Z,10.18
2022-12-25T10:08:52.704Z,12.57
2022-12-25T10:10:30.089Z,11.80
2022-12-25T10:12:35.583Z,12.23
2022-12-25T10:14:31.834Z,10.90
2022-12-25T10:16:26.677Z,10.85
2022-12-25T10:18:13.554Z,10.85
2022-12-25T10:19:53.119Z,11.25
2022-12-25T10:21:25.602Z,13.38
2022-12-25T10:23:00.552Z,9.43
2022-12-25T10:24:35.058Z,9.85
2022-12-25T10:26:18.784Z,11.73
2022-12-25T10:27:58.331Z,9.77
2022-12-25T10:29:33.443Z,12.15
2022-12-25T10:31:27.086Z,11.55
2022-12-25T10:32:59.027Z,11.05
2022-12-25T10:34:30.674Z,10.32
2022-12-25T10:36:02.839Z,10.80
2022-12-25T10:37:34.374Z,11.55
2022-12-25T10:39:06.003Z,10.43
2022-12-25T10:41:06.073Z,11.95
2022-12-25T10:42:42.473Z,9.18
2022-12-25T10:44:24.269Z,10.80
2022-12-25T10:45:55.856Z,11.73
2022-12-25T10:47:38.127Z,14.02
2022-12-25T10:50:47.432Z,10.23
2022-12-25T10:52:24.681Z,10.15
2022-12-25T10:53:56.498Z,10.07
2022-12-25T10:55:29.340Z,10.85
2022-12-25T10:57:21.974Z,11.57
2022-12-25T10:59:06.961Z,12.48
2022-12-25T11:00:38.635Z,10.98
2022-12-25T11:02:26.764Z,10.77
2022-12-25T11:03:59.049Z,12.90
2022-12-25T11:05:33.364Z,10.38
2022-12-25T11:07:15.024Z,9.98
2022-12-25T11:08:53.381Z,10.15
2022-12-25T11:10:31.387Z,9.23
2022-12-25T11:12:03.265Z,8.32
2022-12-25T11:13:39.641Z,10.10
2022-12-25T11:15:36.439Z,11.18
2022-12-25T11:17:09.731Z,12.90
2022-12-25T11:18:50.116Z,8.90
2022-12-25T11:20:22.607Z,7.72
2022-12-25T11:22:00.462Z,9.52
2022-12-25T11:23:32.882Z,8.98
2022-12-25T11:25:15.203Z,8.00
2022-12-25T11:26:50.342Z,7.85
2022-12-25T11:28:22.193Z,10.38
2022-12-25T11:30:04.736Z,10.95
2022-12-25T11:31:41.096Z,10.50
2022-12-25T11:33:14.304Z,12.57
2022-12-25T11:34:48.470Z,10.65
2022-12-25T11:36:24.318Z,10.68
2022-12-25T11:39:28.923Z,8.27
2022-12-25T11:41:04.419Z,10.27
2022-12-25T11:43:07.896Z,10.80
2022-12-25T11:44:53.328Z,10.00
2022-12-25T11:46:33.777Z,10.48
2022-12-25T11:48:15.921Z,10.15
2022-12-25T11:51:38.704Z,7.75
2022-12-25T11:53:22.247Z,8.98
2022-12-25T11:55:03.212Z,14.02
2022-12-25T11:56:36.535Z,8.90
2022-12-25T11:58:40.368Z,9.32
2022-12-25T12:00:16.549Z,9.00
2022-12-25T12:02:01.893Z,13.25
2022-12-25T12:03:37.135Z,10.73
2022-12-25T12:05:20.107Z,13.05
2022-12-25T12:07:03.973Z,9.02
2022-12-25T12:08:36.480Z,9.38
2022-12-25T12:10:18.321Z,9.50
2022-12-25T12:12:08.591Z,7.93
2022-12-25T12:13:50.044Z,9.10
2022-12-25T12:15:51.284Z,7.95
2022-12-25T12:17:23.047Z,9.57
2022-12-25T12:18:54.644Z,9.27
2022-12-25T12:20:26.343Z,9.43
2022-12-25T12:22:01.643Z,11.30
2022-12-25T12:23:46.832Z,10.52
2022-12-25T12:25:18.874Z,9.57
2022-12-25T12:27:05.912Z,13.30
2022-12-25T12:28:45.823Z,18.70
2022-12-25T12:30:31.451Z,9.18
2022-12-25T12:32:06.403Z,14.98
2022-12-25T12:33:50.599Z,11.23
2022-12-25T12:35:28.230Z,9.18
2022-12-25T12:37:24.465Z,8.95
2022-12-25T12:38:59.025Z,10.15
2022-12-25T12:40:38.847Z,8.68
2022-12-25T12:42:21.102Z,9.25
2022-12-25T12:45:31.176Z,9.75
2022-12-25T12:47:02.821Z,8.95
2022-12-25T12:48:41.357Z,9.48
2022-12-25T12:50:31.252Z,7.75
2022-12-25T12:52:05.214Z,7.40
2022-12-25T12:53:39.232Z,10.25
2022-12-25T12:55:15.062Z,8.65
2022-12-25T12:57:03.510Z,9.55
2022-12-25T12:58:37.604Z,9.48
2022-12-25T13:00:21.264Z,7.50
2022-12-25T13:02:13.555Z,7.95
2022-12-25T13:04:16.287Z,8.75
2022-12-25T13:05:52.526Z,8.00
2022-12-25T13:07:32.064Z,7.57
2022-12-25T13:09:23.037Z,8.40
2022-12-25T13:11:13.965Z,8.10
2022-12-25T13:12:46.857Z,9.10
2022-12-25T13:14:24.315Z,9.63
2022-12-25T13:15:57.616Z,8.02
2022-12-25T13:17:29.623Z,7.72
2022-12-25T13:19:06.101Z,7.72
2022-12-25T13:20:45.257Z,7.97
2022-12-25T13:22:46.445Z,6.45
2022-12-25T13:24:24.529Z,7.38
2022-12-25T13:26:01.255Z,7.25
2022-12-25T13:27:33.858Z,7.18
2022-12-25T13:29:11.346Z,7.50
2022-12-25T13:30:43.405Z,7.20
2022-12-25T13:32:30.628Z,9.07
2022-12-25T13:34:26.800Z,6.85
2022-12-25T13:35:58.819Z,7.95
2022-12-25T13:37:31.525Z,8.90
2022-12-25T13:39:03.859Z,8.25
2022-12-25T13:40:36.047Z,7.85
2022-12-25T13:42:10.037Z,7.15
2022-12-25T13:43:44.405Z,8.38
2022-12-25T13:45:24.193Z,10.43
2022-12-25T13:46:55.787Z,8.32
2022-12-25T13:48:27.502Z,8.60
2022-12-25T13:50:21.879Z,6.28
2022-12-25T13:52:10.590Z,6.20
2022-12-25T13:53:43.046Z,6.28
2022-12-25T13:55:21.547Z,6.50
2022-12-25T13:56:54.725Z,4.82
2022-12-25T13:58:29.955Z,7.97
2022-12-25T14:00:02.697Z,7.78
2022-12-25T14:01:42.863Z,8.13
2022-12-25T14:03:19.713Z,9.45
2022-12-25T14:04:51.277Z,8.68
2022-12-25T14:06:28.443Z,8.75
2022-12-25T14:08:03.265Z,7.38
2022-12-25T14:09:35.834Z,7.50
2022-12-25T14:11:08.584Z,8.38
2022-12-25T14:12:41.639Z,7.07
2022-12-25T14:14:20.769Z,9.02
2022-12-25T14:15:55.045Z,9.13
2022-12-25T14:17:27.061Z,8.98
2022-12-25T14:19:03.710Z,7.60
2022-12-25T14:20:39.982Z,7.47
2022-12-25T14:22:18.884Z,11.55
2022-12-25T14:23:50.880Z,8.63
2022-12-25T14:25:31.261Z,8.75
2022-12-25T14:27:05.689Z,14.68
2022-12-25T14:28:37.735Z,10.88
2022-12-25T14:30:12.916Z,9.85
2022-12-25T14:31:46.816Z,9.93
2022-12-25T14:33:22.919Z,9.48
2022-12-25T14:34:59.538Z,11.98
2022-12-25T14:36:33.225Z,9.77
2022-12-25T14:38:05.820Z,11.52
2022-12-25T14:39:38.396Z,11.02
2022-12-25T14:41:25.809Z,12.07
2022-12-25T14:43:03.696Z,11.00
2022-12-25T14:44:39.467Z,8.68
2022-12-25T14:46:24.095Z,10.70
2022-12-25T14:47:59.253Z,10.13
2022-12-25T14:49:32.457Z,10.82
2022-12-25T14:51:09.102Z,11.27
2022-12-25T14:52:45.385Z,10.57
2022-12-25T14:54:23.160Z,9.45
2022-12-25T14:55:55.372Z,10.40
2022-12-25T14:57:37.792Z,11.43
2022-12-25T14:59:19.027Z,8.20
2022-12-25T15:00:57.613Z,12.43
2022-12-25T15:02:44.338Z,9.43
2022-12-25T15:04:18.113Z,10.10
2022-12-25T15:06:03.694Z,8.95
2022-12-25T15:07:35.358Z,12.15
2022-12-25T15:09:15.302Z,10.40
2022-12-25T15:10:59.697Z,28.05
2022-12-25T15:12:32.968Z,22.23
2022-12-25T15:14:04.604Z,15.75
2022-12-25T15:15:36.381Z,15.88
2022-12-25T15:17:29.494Z,14.57
2022-12-25T15:19:01.994Z,10.48
2022-12-25T15:20:34.693Z,9.95
2022-12-25T15:22:06.332Z,9.00
2022-12-25T15:23:37.951Z,15.20
2022-12-25T15:25:14.763Z,12.43
2022-12-25T15:26:46.625Z,9.98
2022-12-25T15:28:18.456Z,9.73
2022-12-25T15:31:44.415Z,10.23
2022-12-25T15:33:18.260Z,9.50
2022-12-25T15:34:50.553Z,14.13
2022-12-25T15:36:23.303Z,10.32
2022-12-25T15:37:54.865Z,10.77
2022-12-25T15:39:26.572Z,11.27
2022-12-25T15:40:58.270Z,11.68
2022-12-25T15:42:30.863Z,12.98
2022-12-25T15:44:03.973Z,9.65
2022-12-25T15:45:35.747Z,8.50
2022-12-25T15:47:10.042Z,10.05
2022-12-25T15:48:41.793Z,12.05
2022-12-25T15:50:13.508Z,12.40
2022-12-25T15:51:46.223Z,11.45
2022-12-25T15:53:17.876Z,11.73
2022-12-25T15:54:49.452Z,11.90
2022-12-25T15:56:22.309Z,10.95
2022-12-25T15:57:54.635Z,11.73
2022-12-25T15:59:26.180Z,11.13
2022-12-25T16:00:57.869Z,10.82
2022-12-25T16:02:29.571Z,13.25
2022-12-25T16:04:01.277Z,11.00
2022-12-25T16:05:32.840Z,11.27
2022-12-25T16:07:04.491Z,12.52
2022-12-25T16:08:36.007Z,14.15
2022-12-25T16:10:14.443Z,13.40
2022-12-25T16:11:46.569Z,14.07
2022-12-25T16:13:18.193Z,10.00
2022-12-25T16:14:49.701Z,12.07
2022-12-25T16:16:22.770Z,10.82
2022-12-25T16:17:54.400Z,11.55
2022-12-25T16:19:25.979Z,11.05
2022-12-25T16:20:59.199Z,11.95
2022-12-25T16:22:31.964Z,10.45
2022-12-25T16:24:04.017Z,11.73
2022-12-25T16:25:35.682Z,9.32
2022-12-25T16:27:07.343Z,8.20
2022-12-25T16:28:39.034Z,8.02
2022-12-25T16:30:14.962Z,9.75
2022-12-25T16:31:48.119Z,9.35
2022-12-25T16:33:19.788Z,9.65
2022-12-25T16:34:51.378Z,9.68
2022-12-25T16:36:26.855Z,12.85
2022-12-25T16:39:30.535Z,11.65
2022-12-25T16:41:02.233Z,10.57
2022-12-25T16:42:34.116Z,11.13
2022-12-25T16:44:09.554Z,12.15
2022-12-25T16:45:41.316Z,8.30
2022-12-25T16:47:12.940Z,13.18
2022-12-25T16:48:44.853Z,12.30
2022-12-25T16:50:16.611Z,13.10
2022-12-25T16:51:48.301Z,12.65
2022-12-25T16:53:19.809Z,11.02
2022-12-25T16:54:51.360Z,11.85
2022-12-25T16:56:28.290Z,14.98
2022-12-25T16:58:00.816Z,18.30
2022-12-25T16:59:33.043Z,20.27
2022-12-25T17:01:09.862Z,19.15
2022-12-25T17:02:41.596Z,22.50
2022-12-25T17:04:13.577Z,19.95
2022-12-25T17:05:45.151Z,16.20
2022-12-25T17:07:17.351Z,17.17
2022-12-25T17:08:50.171Z,15.38
2022-12-25T17:10:21.786Z,15.00
2022-12-25T17:11:53.346Z,16.02
2022-12-25T17:13:24.976Z,18.63
2022-12-25T17:14:56.563Z,17.98
2022-12-25T17:16:31.991Z,17.25
2022-12-25T17:18:03.725Z,16.98
2022-12-25T17:19:35.493Z,15.45
2022-12-25T17:21:07.352Z,16.20
2022-12-25T17:22:38.983Z,17.77
2022-12-25T17:24:10.541Z,13.70
2022-12-25T17:25:42.162Z,15.30
2022-12-25T17:27:14.126Z,15.73
2022-12-25T17:28:45.902Z,16.27
2022-12-25T17:30:17.457Z,14.13
2022-12-25T17:31:49.169Z,16.17
2022-12-25T17:33:20.886Z,14.35
2022-12-25T17:34:52.506Z,14.43
2022-12-25T17:36:24.276Z,16.45
2022-12-25T17:37:55.854Z,15.15
2022-12-25T17:39:27.723Z,13.38
2022-12-25T17:41:01.238Z,12.93
2022-12-25T17:42:33.088Z,12.85
2022-12-25T17:44:04.963Z,14.60
2022-12-25T17:45:37.546Z,10.55
2022-12-25T17:47:09.163Z,12.63
2022-12-25T17:48:40.976Z,13.55
2022-12-25T17:50:12.597Z,16.48
2022-12-25T17:51:44.923Z,14.88
2022-12-25T17:53:16.527Z,16.30
2022-12-25T17:54:48.134Z,14.90
2022-12-25T17:56:21.943Z,20.25
2022-12-25T17:57:53.518Z,18.20
2022-12-25T17:59:29.477Z,18.73
2022-12-25T18:02:43.817Z,18.98
2022-12-25T18:04:15.612Z,17.08
2022-12-25T18:05:47.804Z,19.38
2022-12-25T18:07:19.492Z,17.50
2022-12-25T18:08:51.349Z,17.13
2022-12-25T18:10:22.900Z,20.15
2022-12-25T18:11:54.872Z,17.98
2022-12-25T18:13:26.642Z,15.55
2022-12-25T18:14:58.294Z,17.23
2022-12-25T18:16:33.124Z,18.23
2022-12-25T18:18:05.317Z,17.58
2022-12-25T18:19:36.952Z,20.08
2022-12-25T18:21:08.880Z,16.80
2022-12-25T18:22:40.483Z,18.00
2022-12-25T18:24:12.408Z,22.95
2022-12-25T18:25:44.142Z,20.83
2022-12-25T18:27:15.787Z,19.40
2022-12-25T18:28:48.726Z,18.48
2022-12-25T18:30:21.021Z,18.80
2022-12-25T18:31:52.818Z,20.17
2022-12-25T18:33:26.713Z,17.42
2022-12-25T18:34:58.335Z,22.13
2022-12-25T18:36:30.404Z,20.25
2022-12-25T18:38:02.000Z,19.63
2022-12-25T18:39:33.652Z,17.35
2022-12-25T18:41:08.066Z,21.40
2022-12-25T18:42:39.820Z,15.50
2022-12-25T18:44:11.375Z,15.57
2022-12-25T18:45:43.110Z,16.10
2022-12-25T18:47:14.672Z,16.65
2022-12-25T18:48:46.445Z,17.42
2022-12-25T18:50:18.116Z,14.98
2022-12-25T18:51:49.835Z,13.70
2022-12-25T18:53:21.471Z,10.52
2022-12-25T18:54:53.156Z,11.73
2022-12-25T18:56:24.809Z,9.00
2022-12-25T18:57:56.488Z,18.88
2022-12-25T18:59:29.690Z,8.75
2022-12-25T19:01:01.515Z,11.23
2022-12-25T19:02:33.335Z,10.20
2022-12-25T19:04:06.178Z,9.02
2022-12-25T19:05:41.108Z,9.80
2022-12-25T19:07:12.705Z,10.85
2022-12-25T19:08:44.655Z,10.15
2022-12-25T19:10:16.290Z,8.82
2022-12-25T19:11:47.900Z,13.25
2022-12-25T19:13:19.517Z,10.75
2022-12-25T19:14:51.290Z,14.10
2022-12-25T19:16:22.922Z,11.57
2022-12-25T19:17:54.508Z,8.65
2022-12-25T19:19:26.591Z,11.13
2022-12-25T19:21:02.799Z,10.15
2022-12-25T19:22:34.385Z,10.05
2022-12-25T19:24:06.362Z,12.55
2022-12-25T19:25:39.798Z,9.35
2022-12-25T19:27:11.512Z,9.30
2022-12-25T19:28:43.147Z,8.90
2022-12-25T19:30:14.816Z,9.05
2022-12-25T19:31:46.598Z,12.02
2022-12-25T19:33:18.936Z,13.23
2022-12-25T19:34:50.649Z,11.52
2022-12-25T19:36:22.271Z,11.55
2022-12-25T19:37:53.912Z,13.10
2022-12-25T19:39:25.560Z,12.88
2022-12-25T19:41:00.951Z,15.02
2022-12-25T19:42:32.817Z,13.60
2022-12-25T19:44:05.566Z,11.00
2022-12-25T19:45:37.230Z,16.23
2022-12-25T19:47:10.400Z,12.82
2022-12-25T19:48:42.099Z,12.90
2022-12-25T19:50:13.786Z,13.10
2022-12-25T19:51:46.285Z,14.05
2022-12-25T19:53:18.457Z,13.77
2022-12-25T19:54:53.146Z,15.57
2022-12-25T19:56:26.448Z,18.15
2022-12-25T19:57:59.173Z,13.48
2022-12-25T19:59:30.859Z,16.27
2022-12-25T20:01:06.044Z,14.82
2022-12-25T20:02:37.760Z,14.68
2022-12-25T20:04:10.432Z,12.80
2022-12-25T20:05:44.690Z,18.05
2022-12-25T20:07:16.287Z,16.15
2022-12-25T20:08:49.451Z,19.20
2022-12-25T20:10:21.448Z,17.33
2022-12-25T20:11:53.174Z,19.40
2022-12-25T20:13:24.831Z,17.15
2022-12-25T20:14:56.449Z,15.70
2022-12-25T20:16:28.292Z,17.55
2022-12-25T20:17:59.906Z,14.07
2022-12-25T20:19:31.507Z,16.50
2022-12-25T20:21:14.012Z,16.85
2022-12-25T20:22:45.607Z,14.90
2022-12-25T20:24:17.230Z,17.08
2022-12-25T20:25:48.850Z,15.68
2022-12-25T20:27:20.475Z,16.30
2022-12-25T20:28:52.616Z,15.25
2022-12-25T20:30:24.152Z,20.17
2022-12-25T20:31:55.811Z,18.08
2022-12-25T20:33:27.491Z,15.23
2022-12-25T20:34:59.180Z,17.80
2022-12-25T20:36:36.296Z,17.42
2022-12-25T20:38:08.201Z,16.60
2022-12-25T20:39:39.802Z,15.13
2022-12-25T20:41:30.479Z,16.95
2022-12-25T20:43:02.253Z,13.13
2022-12-25T20:44:33.940Z,16.85
2022-12-25T20:46:06.267Z,13.35
2022-12-25T20:47:38.044Z,19.27
2022-12-25T20:49:09.775Z,19.45
2022-12-25T20:50:41.381Z,18.27
2022-12-25T20:52:13.051Z,16.75
2022-12-25T20:53:45.220Z,13.88
2022-12-25T20:55:16.993Z,18.35
2022-12-25T20:56:48.777Z,13.65
2022-12-25T20:58:20.395Z,14.15
2022-12-25T20:59:52.161Z,14.63
2022-12-25T21:01:24.370Z,13.77
2022-12-25T21:02:56.202Z,15.65
2022-12-25T21:04:27.877Z,13.00
2022-12-25T21:05:59.753Z,14.52